Time;durP1;ratioP1;P1;durP2;ratioP2;P2;SDS_P1;SDS_P2;PMS_P1;PMS_P2;Temp;Humidity;BMP_temperature;BMP_pressure;BME280_temperature;BME280_humidity;BME280_pressure;Samples;Min_cycle;Max_cycle;Signal;HPM_P1;HPM_P2
2023/01/25 00:01:56;;;;;;;4.95;3.67;;;3.50;99.90;;;;;;5077329;28;20593;-46
2023/01/25 00:04:25;;;;;;;4.38;3.00;;;3.50;99.90;;;;;;5045882;28;20278;-47
2023/01/25 00:06:53;;;;;;;4.35;3.20;;;3.50;99.90;;;;;;5048001;28;20223;-46
2023/01/25 00:09:23;;;;;;;5.15;4.05;;;3.50;99.90;;;;;;5040149;28;20239;-46
2023/01/25 00:11:55;;;;;;;4.57;3.33;;;3.50;99.90;;;;;;5049337;28;20632;-47
2023/01/25 00:14:24;;;;;;;5.97;4.40;;;3.60;99.90;;;;;;5075753;28;20644;-48
2023/01/25 00:16:53;;;;;;;5.18;3.80;;;3.50;99.90;;;;;;5046712;28;20199;-46
2023/01/25 00:19:22;;;;;;;3.92;3.38;;;3.50;99.90;;;;;;5077186;28;20228;-46
2023/01/25 00:21:51;;;;;;;4.28;3.25;;;3.60;99.90;;;;;;5054756;28;20675;-48
2023/01/25 00:24:21;;;;;;;6.75;3.80;;;3.50;99.90;;;;;;5039979;28;20212;-49
2023/01/25 00:26:50;;;;;;;4.32;3.60;;;3.50;99.90;;;;;;5045336;28;20197;-47
2023/01/25 00:29:19;;;;;;;6.25;4.70;;;3.50;99.90;;;;;;5045746;28;20221;-47
2023/01/25 00:32:01;;;;;;;3.97;3.45;;;3.50;99.90;;;;;;5045119;28;20226;-48
2023/01/25 00:34:45;;;;;;;5.57;3.95;;;3.50;99.90;;;;;;5043543;28;20231;-46
2023/01/25 00:37:25;;;;;;;5.47;4.15;;;3.60;99.90;;;;;;5046328;28;20194;-47
2023/01/25 00:39:53;;;;;;;6.97;4.53;;;3.60;99.90;;;;;;5046694;28;20231;-45
2023/01/25 00:42:22;;;;;;;4.10;3.42;;;3.60;99.90;;;;;;5077759;28;20204;-47
2023/01/25 00:44:51;;;;;;;3.30;3.00;;;3.60;99.90;;;;;;5040939;28;20712;-47
2023/01/25 00:47:21;;;;;;;3.20;2.90;;;3.50;99.90;;;;;;5045005;28;20255;-46
2023/01/25 00:49:50;;;;;;;3.80;3.47;;;3.60;99.90;;;;;;5043289;28;20276;-46
2023/01/25 00:52:19;;;;;;;3.80;3.50;;;3.50;99.90;;;;;;5041785;28;20601;-46
2023/01/25 00:54:48;;;;;;;4.32;3.45;;;3.50;99.90;;;;;;5041898;28;20693;-46
2023/01/25 00:57:16;;;;;;;4.70;3.63;;;3.50;99.90;;;;;;5049875;28;20190;-46
2023/01/25 00:59:46;;;;;;;5.50;3.55;;;3.60;99.90;;;;;;5048402;28;20287;-47
2023/01/25 01:02:15;;;;;;;4.57;4.18;;;3.60;99.90;;;;;;5043116;28;20289;-46
2023/01/25 01:04:45;;;;;;;4.63;3.67;;;3.50;99.90;;;;;;5049000;28;20303;-47
2023/01/25 01:07:14;;;;;;;3.90;3.45;;;3.50;99.90;;;;;;5053469;28;20250;-47
2023/01/25 01:09:43;;;;;;;4.05;3.47;;;3.60;99.90;;;;;;5046667;28;20789;-46
2023/01/25 01:12:11;;;;;;;4.20;3.05;;;3.60;99.90;;;;;;5042082;28;20209;-46
2023/01/25 01:14:40;;;;;;;4.90;4.13;;;3.60;99.90;;;;;;5081446;28;20248;-48
2023/01/25 01:17:08;;;;;;;3.45;2.85;;;3.50;99.90;;;;;;5055951;28;20203;-46
2023/01/25 01:19:37;;;;;;;4.97;3.60;;;3.60;99.90;;;;;;5055356;28;20227;-47
2023/01/25 01:22:07;;;;;;;5.30;3.75;;;3.60;99.90;;;;;;5050262;28;20211;-48
2023/01/25 01:24:36;;;;;;;3.78;3.00;;;3.60;99.90;;;;;;5038237;28;20640;-46
2023/01/25 01:27:04;;;;;;;5.40;3.45;;;3.60;99.90;;;;;;5052004;28;20195;-46
2023/01/25 01:29:33;;;;;;;4.70;3.78;;;3.60;99.90;;;;;;5040279;28;20243;-46
2023/01/25 01:32:02;;;;;;;3.95;3.17;;;3.60;99.90;;;;;;5054011;28;20276;-46
2023/01/25 01:34:31;;;;;;;3.83;3.40;;;3.60;99.90;;;;;;5078772;28;20234;-46
2023/01/25 01:37:00;;;;;;;4.65;3.53;;;3.50;99.90;;;;;;5042105;28;20196;-46
2023/01/25 01:39:30;;;;;;;4.90;3.30;;;3.60;99.90;;;;;;5048202;28;20299;-49
2023/01/25 01:41:58;;;;;;;3.75;3.10;;;3.60;99.90;;;;;;5039401;28;20281;-46
2023/01/25 01:44:52;;;;;;;4.65;3.22;;;3.50;99.90;;;;;;5037463;28;20227;-46
2023/01/25 01:47:27;;;;;;;5.50;4.35;;;3.60;99.90;;;;;;5035258;28;20197;-45
2023/01/25 01:50:04;;;;;;;4.40;3.40;;;3.50;99.90;;;;;;5040828;28;20222;-46
2023/01/25 01:52:37;;;;;;;3.83;2.75;;;3.60;99.90;;;;;;5076624;28;20784;-47
2023/01/25 01:55:12;;;;;;;3.55;3.20;;;3.50;99.90;;;;;;5060039;28;20213;-47
2023/01/25 01:57:48;;;;;;;4.60;3.10;;;3.60;99.90;;;;;;5061077;28;20220;-45
2023/01/25 02:00:20;;;;;;;3.58;2.90;;;3.50;99.90;;;;;;5054244;28;20212;-46
2023/01/25 02:02:51;;;;;;;4.50;3.70;;;3.60;99.90;;;;;;5059967;28;20283;-47
2023/01/25 02:05:26;;;;;;;4.43;3.08;;;3.60;99.90;;;;;;5043092;28;20184;-47
2023/01/25 02:07:55;;;;;;;5.07;3.45;;;3.60;99.90;;;;;;5079308;28;20285;-45
2023/01/25 02:10:27;;;;;;;4.85;3.20;;;3.60;99.90;;;;;;5074580;28;20236;-46
2023/01/25 02:12:58;;;;;;;4.43;3.47;;;3.60;99.90;;;;;;5067977;28;20283;-46
2023/01/25 02:15:29;;;;;;;3.63;2.95;;;3.60;99.90;;;;;;5066953;28;20208;-47
2023/01/25 02:17:58;;;;;;;4.63;3.55;;;3.50;99.90;;;;;;5047271;28;20208;-47
2023/01/25 02:20:36;;;;;;;4.47;3.20;;;3.50;99.90;;;;;;5060687;28;20232;-45
2023/01/25 02:23:11;;;;;;;4.47;3.10;;;3.60;99.90;;;;;;5055563;28;20605;-45
2023/01/25 02:25:43;;;;;;;3.85;3.45;;;3.60;99.90;;;;;;5062907;28;20260;-46
2023/01/25 02:28:16;;;;;;;6.13;4.43;;;3.50;99.90;;;;;;5054293;28;20204;-47
2023/01/25 02:30:45;;;;;;;3.58;2.70;;;3.50;99.90;;;;;;5080316;28;20322;-46
2023/01/25 02:33:16;;;;;;;4.90;3.95;;;3.50;99.90;;;;;;5035714;28;20220;-47
2023/01/25 02:35:47;;;;;;;4.30;3.50;;;3.60;99.90;;;;;;5045528;28;20217;-47
2023/01/25 02:38:20;;;;;;;4.05;3.65;;;3.50;99.90;;;;;;5044104;28;20629;-49
2023/01/25 02:40:57;;;;;;;2.92;2.65;;;3.50;99.90;;;;;;5075855;28;20223;-47
2023/01/25 02:43:31;;;;;;;3.20;2.90;;;3.60;99.90;;;;;;5045286;28;20216;-46
2023/01/25 02:46:11;;;;;;;4.90;3.55;;;3.50;99.90;;;;;;5043620;28;20569;-45
2023/01/25 02:48:39;;;;;;;4.13;3.70;;;3.60;99.90;;;;;;5034461;28;20224;-46
2023/01/25 02:51:09;;;;;;;5.13;3.90;;;3.50;99.90;;;;;;5044711;28;20213;-47
2023/01/25 02:53:40;;;;;;;4.38;3.47;;;3.60;99.90;;;;;;5078413;28;20271;-45
2023/01/25 02:56:10;;;;;;;5.15;3.90;;;3.60;99.90;;;;;;5035471;28;20704;-46
2023/01/25 02:58:38;;;;;;;4.35;3.95;;;3.50;99.90;;;;;;5040464;28;20197;-45
2023/01/25 03:01:07;;;;;;;4.15;3.70;;;3.50;99.90;;;;;;5070669;28;20772;-47
2023/01/25 03:03:36;;;;;;;5.88;4.10;;;3.50;99.90;;;;;;5052765;28;20581;-45
2023/01/25 03:06:06;;;;;;;4.82;3.65;;;3.50;99.90;;;;;;5048597;28;20193;-47
2023/01/25 03:08:35;;;;;;;4.40;3.65;;;3.50;99.90;;;;;;5054627;28;20229;-48
2023/01/25 03:11:05;;;;;;;5.18;3.55;;;3.60;99.90;;;;;;5052896;28;20249;-46
2023/01/25 03:13:36;;;;;;;4.22;3.15;;;3.50;99.90;;;;;;5056414;28;20227;-46
2023/01/25 03:16:10;;;;;;;5.50;4.32;;;3.60;99.90;;;;;;5038456;28;20209;-46
2023/01/25 03:18:41;;;;;;;4.40;3.47;;;3.50;99.90;;;;;;5033191;28;20228;-46
2023/01/25 03:21:12;;;;;;;3.72;2.72;;;3.50;99.90;;;;;;5040265;28;20225;-47
2023/01/25 03:23:41;;;;;;;8.90;6.45;;;3.50;99.90;;;;;;5033123;28;20636;-45
2023/01/25 03:26:12;;;;;;;5.20;3.40;;;3.50;99.90;;;;;;5024307;28;20204;-46
2023/01/25 03:28:57;;;;;;;4.50;3.70;;;3.50;99.90;;;;;;5025136;28;20232;-46
2023/01/25 03:31:26;;;;;;;5.32;3.83;;;3.50;99.90;;;;;;5024566;28;20252;-47
2023/01/25 03:33:55;;;;;;;6.78;4.22;;;3.50;99.90;;;;;;5026235;28;20598;-46
2023/01/25 03:36:27;;;;;;;5.82;4.65;;;3.50;99.90;;;;;;5019722;28;20206;-46
2023/01/25 03:38:56;;;;;;;7.65;5.50;;;3.50;99.90;;;;;;5062687;28;20699;-47
2023/01/25 03:41:24;;;;;;;4.13;3.70;;;3.50;99.90;;;;;;5019024;28;20232;-46
2023/01/25 03:43:53;;;;;;;4.88;3.90;;;3.50;99.90;;;;;;5008138;28;20222;-47
2023/01/25 03:46:24;;;;;;;5.18;3.28;;;3.50;99.90;;;;;;5018688;28;20194;-46
2023/01/25 03:48:55;;;;;;;3.40;3.10;;;3.50;99.90;;;;;;5026114;28;20253;-46
2023/01/25 03:51:23;;;;;;;5.28;3.80;;;3.50;99.90;;;;;;5005599;28;20219;-46
2023/01/25 03:53:53;;;;;;;3.75;3.35;;;3.50;99.90;;;;;;5030760;28;20221;-45
2023/01/25 03:56:22;;;;;;;5.25;3.95;;;3.50;99.90;;;;;;5019715;28;20222;-46
2023/01/25 03:59:14;;;;;;;4.53;3.35;;;3.50;99.90;;;;;;5018566;28;20225;-46
2023/01/25 04:01:45;;;;;;;5.65;3.67;;;3.50;99.90;;;;;;5017704;28;20202;-48
2023/01/25 04:04:14;;;;;;;4.88;3.78;;;3.50;99.90;;;;;;5038380;28;20252;-46
2023/01/25 04:06:45;;;;;;;4.70;3.35;;;3.50;99.90;;;;;;5030392;28;20206;-45
2023/01/25 04:09:15;;;;;;;3.13;2.83;;;3.50;99.90;;;;;;5047974;28;20302;-47
2023/01/25 04:11:50;;;;;;;4.70;3.75;;;3.50;99.90;;;;;;5023132;28;20643;-46
2023/01/25 04:14:18;;;;;;;6.47;4.05;;;3.50;99.90;;;;;;5017998;28;20217;-45
2023/01/25 04:17:10;;;;;;;4.30;3.83;;;3.50;99.90;;;;;;5022718;28;20237;-47
2023/01/25 04:19:42;;;;;;;4.07;3.55;;;3.50;99.90;;;;;;5025387;28;20233;-47
2023/01/25 04:22:15;;;;;;;3.55;3.25;;;3.50;99.90;;;;;;5055973;28;20201;-46
2023/01/25 04:24:44;;;;;;;6.38;4.28;;;3.50;99.90;;;;;;5045144;28;20220;-47
2023/01/25 04:27:13;;;;;;;5.97;3.33;;;3.50;99.90;;;;;;5040252;28;20198;-47
2023/01/25 04:29:52;;;;;;;5.40;4.28;;;3.50;99.90;;;;;;5041327;28;20318;-47
2023/01/25 04:32:23;;;;;;;4.63;3.60;;;3.50;99.90;;;;;;5039358;28;20286;-46
2023/01/25 04:34:53;;;;;;;7.20;4.88;;;3.50;99.90;;;;;;5037352;28;20667;-46
2023/01/25 04:37:30;;;;;;;4.45;4.03;;;3.50;99.90;;;;;;5037904;28;20217;-46
2023/01/25 04:40:00;;;;;;;5.57;4.15;;;3.50;99.90;;;;;;5041153;28;20216;-47
2023/01/25 04:42:33;;;;;;;4.90;3.35;;;3.50;99.90;;;;;;5046303;28;20254;-47
2023/01/25 04:45:01;;;;;;;6.00;4.38;;;3.50;99.90;;;;;;5049441;28;20226;-47
2023/01/25 04:47:32;;;;;;;5.22;4.15;;;3.50;99.90;;;;;;5080131;28;20766;-46
2023/01/25 04:50:00;;;;;;;5.05;3.38;;;3.50;99.90;;;;;;5048104;28;20228;-44
2023/01/25 04:52:31;;;;;;;5.03;3.55;;;3.50;99.90;;;;;;5080750;28;20223;-46
2023/01/25 04:54:59;;;;;;;7.43;4.10;;;3.50;99.90;;;;;;5041064;28;20570;-46
2023/01/25 04:57:31;;;;;;;5.55;3.45;;;3.50;99.90;;;;;;5045235;28;20304;-46
2023/01/25 05:00:00;;;;;;;4.75;3.90;;;3.50;99.90;;;;;;5048251;28;20725;-47
2023/01/25 05:02:28;;;;;;;5.35;4.15;;;3.50;99.90;;;;;;5078055;28;20234;-46
2023/01/25 05:04:59;;;;;;;4.95;3.70;;;3.50;99.90;;;;;;5063964;28;20403;-44
2023/01/25 05:07:29;;;;;;;4.90;3.60;;;3.50;99.90;;;;;;5066880;28;20223;-46
2023/01/25 05:09:58;;;;;;;5.22;3.67;;;3.50;99.90;;;;;;5082703;28;20244;-47
2023/01/25 05:12:27;;;;;;;4.28;3.75;;;3.50;99.90;;;;;;5058936;28;20200;-46
2023/01/25 05:15:00;;;;;;;3.95;2.97;;;3.50;99.90;;;;;;5033882;28;20202;-44
2023/01/25 05:17:29;;;;;;;4.97;3.67;;;3.50;99.90;;;;;;5040115;28;20767;-46
2023/01/25 05:19:59;;;;;;;5.60;3.65;;;3.50;99.90;;;;;;5077131;28;20213;-46
2023/01/25 05:22:29;;;;;;;4.30;3.78;;;3.50;99.90;;;;;;5041680;28;20194;-45
2023/01/25 05:24:58;;;;;;;6.22;3.85;;;3.50;99.90;;;;;;5039195;28;20674;-45
2023/01/25 05:27:25;;;;;;;3.50;3.17;;;3.50;99.90;;;;;;5073900;28;20209;-46
2023/01/25 05:29:54;;;;;;;4.22;3.40;;;3.50;99.90;;;;;;5040456;28;20307;-47
2023/01/25 05:32:43;;;;;;;4.43;3.45;;;3.50;99.90;;;;;;5031326;28;20235;-45
2023/01/25 05:35:13;;;;;;;4.43;3.40;;;3.50;99.90;;;;;;5046047;28;20196;-47
2023/01/25 05:37:43;;;;;;;4.20;3.63;;;3.50;99.90;;;;;;5081376;28;20228;-47
2023/01/25 05:40:19;;;;;;;4.50;4.10;;;3.50;99.90;;;;;;5076302;28;20614;-45
2023/01/25 05:42:54;;;;;;;6.55;3.97;;;3.50;99.90;;;;;;5047944;28;20197;-46
2023/01/25 05:45:24;;;;;;;5.88;4.43;;;3.50;99.90;;;;;;5045941;28;20196;-45
2023/01/25 05:47:55;;;;;;;3.83;3.30;;;3.50;99.90;;;;;;5071216;28;20292;-46
2023/01/25 05:50:26;;;;;;;4.82;3.28;;;3.50;99.90;;;;;;5037028;28;20567;-45
2023/01/25 05:53:08;;;;;;;4.38;3.25;;;3.50;99.90;;;;;;5045493;28;20202;-46
2023/01/25 05:55:38;;;;;;;4.70;3.97;;;3.50;99.90;;;;;;5042555;28;20559;-47
2023/01/25 05:58:10;;;;;;;5.20;4.10;;;3.50;99.90;;;;;;5048950;28;20701;-46
2023/01/25 06:00:39;;;;;;;4.40;3.60;;;3.50;99.90;;;;;;5046925;28;20216;-47
2023/01/25 06:03:09;;;;;;;4.50;2.97;;;3.50;99.90;;;;;;5076774;28;20721;-47
2023/01/25 06:05:41;;;;;;;3.83;3.22;;;3.50;99.90;;;;;;5075909;28;20254;-44
2023/01/25 06:08:09;;;;;;;5.35;4.00;;;3.50;99.90;;;;;;5074600;28;20208;-47
2023/01/25 06:10:48;;;;;;;6.72;4.30;;;3.50;99.90;;;;;;5075502;28;20220;-47
2023/01/25 06:13:16;;;;;;;6.05;4.40;;;3.50;99.90;;;;;;5045837;28;20256;-45
2023/01/25 06:15:53;;;;;;;5.72;3.88;;;3.50;99.90;;;;;;5039394;28;20589;-47
2023/01/25 06:18:40;;;;;;;5.40;3.70;;;3.50;99.90;;;;;;5034633;28;20226;-46
2023/01/25 06:21:36;;;;;;;5.65;3.70;;;3.50;99.90;;;;;;5033690;28;20259;-46
2023/01/25 06:24:06;;;;;;;6.32;3.67;;;3.50;99.90;;;;;;5040324;28;20216;-48
2023/01/25 06:26:34;;;;;;;5.93;3.80;;;3.50;99.90;;;;;;5068239;28;20709;-45
2023/01/25 06:29:05;;;;;;;5.57;3.80;;;3.50;99.90;;;;;;5043444;28;20717;-47
2023/01/25 06:31:33;;;;;;;6.15;4.07;;;3.50;99.90;;;;;;5036369;28;20216;-47
2023/01/25 06:34:05;;;;;;;5.20;4.10;;;3.50;99.90;;;;;;5038920;28;20237;-45
2023/01/25 06:36:34;;;;;;;4.70;3.78;;;3.50;99.90;;;;;;5045627;28;20196;-45
2023/01/25 06:39:08;;;;;;;4.03;3.28;;;3.50;99.90;;;;;;5033175;28;20235;-46
2023/01/25 06:41:36;;;;;;;5.45;3.10;;;3.50;99.90;;;;;;5035742;28;20225;-45
2023/01/25 06:44:05;;;;;;;5.43;4.20;;;3.50;99.90;;;;;;5043568;28;20231;-46
2023/01/25 06:46:33;;;;;;;3.95;3.03;;;3.50;99.90;;;;;;5066320;28;20249;-46
2023/01/25 06:49:02;;;;;;;5.10;3.30;;;3.50;99.90;;;;;;5044891;28;20226;-46
2023/01/25 06:51:31;;;;;;;5.05;3.72;;;3.50;99.90;;;;;;5078868;28;20219;-48
2023/01/25 06:54:03;;;;;;;5.15;3.72;;;3.50;99.90;;;;;;5046004;28;20320;-45
2023/01/25 06:56:33;;;;;;;6.18;4.15;;;3.50;99.90;;;;;;5033457;28;20464;-45
2023/01/25 06:59:03;;;;;;;6.15;3.88;;;3.50;99.90;;;;;;5033011;28;20217;-46
2023/01/25 07:01:32;;;;;;;5.07;3.70;;;3.50;99.90;;;;;;5042257;28;20302;-46
2023/01/25 07:04:01;;;;;;;5.00;3.92;;;3.50;99.90;;;;;;5047111;28;20219;-46
2023/01/25 07:06:32;;;;;;;4.15;3.70;;;3.50;99.90;;;;;;5052377;28;20196;-47
2023/01/25 07:09:06;;;;;;;4.63;3.90;;;3.50;99.90;;;;;;5055786;28;20215;-45
2023/01/25 07:11:36;;;;;;;4.55;3.75;;;3.50;99.90;;;;;;5041870;28;20313;-45
2023/01/25 07:14:06;;;;;;;5.03;3.83;;;3.50;99.90;;;;;;5028047;28;20221;-46
2023/01/25 07:16:37;;;;;;;4.97;3.42;;;3.50;99.90;;;;;;5045013;28;20197;-47
2023/01/25 07:19:06;;;;;;;9.20;5.50;;;3.50;99.90;;;;;;5036063;28;20220;-46
2023/01/25 07:21:35;;;;;;;5.30;4.20;;;3.50;99.90;;;;;;5031623;28;20213;-47
2023/01/25 07:24:05;;;;;;;4.97;3.58;;;3.50;99.90;;;;;;5023232;28;20227;-45
2023/01/25 07:26:35;;;;;;;5.18;3.63;;;3.50;99.90;;;;;;5034865;28;20410;-49
2023/01/25 07:29:04;;;;;;;5.50;3.80;;;3.50;99.90;;;;;;5019940;28;21179;-45
2023/01/25 07:31:33;;;;;;;7.05;4.40;;;3.50;99.90;;;;;;5015818;28;20225;-46
2023/01/25 07:34:01;;;;;;;5.43;4.22;;;3.50;99.90;;;;;;5034967;28;20631;-45
2023/01/25 07:36:30;;;;;;;5.60;4.03;;;3.50;99.90;;;;;;5025123;28;20206;-46
2023/01/25 07:38:58;;;;;;;4.75;3.80;;;3.50;99.90;;;;;;5041488;28;20213;-46
2023/01/25 07:41:27;;;;;;;5.05;4.28;;;3.50;99.90;;;;;;5019494;28;20291;-46
2023/01/25 07:43:57;;;;;;;6.18;5.07;;;3.50;99.90;;;;;;5023494;28;20283;-45
2023/01/25 07:46:37;;;;;;;8.45;5.78;;;3.50;99.90;;;;;;5041309;28;20276;-47
2023/01/25 07:49:05;;;;;;;5.68;3.67;;;3.50;99.90;;;;;;5024647;28;20230;-46
2023/01/25 07:51:34;;;;;;;4.97;4.07;;;3.50;99.90;;;;;;5025519;28;20215;-46
2023/01/25 07:54:04;;;;;;;7.40;4.05;;;3.50;99.90;;;;;;5034828;28;20228;-45
2023/01/25 07:56:35;;;;;;;8.68;4.82;;;3.50;99.90;;;;;;5022510;28;20695;-45
2023/01/25 07:59:07;;;;;;;5.82;4.32;;;3.50;99.90;;;;;;5032592;28;20701;-46
2023/01/25 08:01:36;;;;;;;6.95;4.60;;;3.50;99.90;;;;;;5025266;28;20308;-45
2023/01/25 08:04:05;;;;;;;5.38;4.03;;;3.50;99.90;;;;;;5044823;28;21093;-45
2023/01/25 08:06:37;;;;;;;4.68;3.72;;;3.50;99.90;;;;;;5045665;28;20203;-45
2023/01/25 08:09:11;;;;;;;4.95;3.53;;;3.50;99.90;;;;;;5041727;28;20606;-46
2023/01/25 08:11:41;;;;;;;5.70;3.95;;;3.50;99.90;;;;;;5034735;28;20213;-46
2023/01/25 08:14:11;;;;;;;6.05;4.78;;;3.50;99.90;;;;;;5037632;28;20228;-46
2023/01/25 08:16:40;;;;;;;6.35;4.50;;;3.50;99.90;;;;;;5042752;28;20202;-45
2023/01/25 08:19:10;;;;;;;5.20;3.95;;;3.50;99.90;;;;;;5039106;28;20686;-46
2023/01/25 08:21:38;;;;;;;5.75;3.47;;;3.50;99.90;;;;;;5045346;28;20225;-45
2023/01/25 08:24:08;;;;;;;7.10;3.72;;;3.50;99.90;;;;;;5048946;28;20232;-46
2023/01/25 08:26:37;;;;;;;3.90;3.30;;;3.50;99.90;;;;;;5046699;28;20221;-45
2023/01/25 08:29:07;;;;;;;4.95;3.90;;;3.50;99.90;;;;;;5048328;28;20704;-46
2023/01/25 08:31:39;;;;;;;5.15;3.35;;;3.50;99.90;;;;;;5049450;28;20221;-46
2023/01/25 08:34:09;;;;;;;5.28;3.55;;;3.50;99.90;;;;;;5046933;28;20226;-46
2023/01/25 08:36:38;;;;;;;4.82;3.67;;;3.50;99.90;;;;;;5075868;28;20609;-46
2023/01/25 08:39:08;;;;;;;6.63;4.30;;;3.50;99.90;;;;;;5037480;28;20248;-46
2023/01/25 08:41:36;;;;;;;5.35;3.88;;;3.50;99.90;;;;;;5046353;28;20225;-46
2023/01/25 08:44:05;;;;;;;4.93;3.75;;;3.50;99.90;;;;;;5045551;28;20223;-46
2023/01/25 08:46:34;;;;;;;4.97;3.95;;;3.50;99.90;;;;;;5038231;28;20622;-45
2023/01/25 08:49:04;;;;;;;6.10;4.30;;;3.50;99.90;;;;;;5040206;28;20222;-47
2023/01/25 08:51:33;;;;;;;5.03;4.15;;;3.50;99.90;;;;;;5081600;28;20576;-47
2023/01/25 08:54:03;;;;;;;8.75;5.57;;;3.50;99.90;;;;;;5041471;28;20229;-46
2023/01/25 08:56:32;;;;;;;6.82;4.00;;;3.50;99.90;;;;;;5079746;28;20255;-47
2023/01/25 08:59:00;;;;;;;5.63;3.90;;;3.50;99.90;;;;;;5040549;28;20225;-46
2023/01/25 09:01:32;;;;;;;6.25;4.32;;;3.50;99.90;;;;;;5045373;28;20270;-45
2023/01/25 09:04:05;;;;;;;5.20;4.05;;;3.50;99.90;;;;;;5025521;28;20257;-46
2023/01/25 09:06:34;;;;;;;5.07;4.03;;;3.50;99.90;;;;;;5028631;28;20212;-46
2023/01/25 09:09:03;;;;;;;5.40;4.05;;;3.50;99.90;;;;;;5026629;28;20284;-45
2023/01/25 09:11:35;;;;;;;7.10;4.10;;;3.50;99.90;;;;;;5027977;28;20745;-46
2023/01/25 09:14:05;;;;;;;5.20;4.18;;;3.50;99.90;;;;;;5049871;28;20232;-45
2023/01/25 09:16:33;;;;;;;6.20;4.38;;;3.50;99.90;;;;;;5041020;28;20200;-47
2023/01/25 09:19:04;;;;;;;4.68;3.80;;;3.50;99.90;;;;;;5042109;28;20274;-46
2023/01/25 09:21:35;;;;;;;6.15;3.97;;;3.50;99.90;;;;;;5045806;28;20228;-45
2023/01/25 09:24:05;;;;;;;5.47;4.18;;;3.50;99.90;;;;;;5035155;28;20595;-46
2023/01/25 09:26:37;;;;;;;4.55;3.63;;;3.40;99.90;;;;;;5045185;28;20784;-45
2023/01/25 09:29:06;;;;;;;5.90;3.80;;;3.50;99.90;;;;;;5047269;28;20665;-46
2023/01/25 09:31:38;;;;;;;6.20;4.38;;;3.50;99.90;;;;;;5046193;28;20212;-46
2023/01/25 09:34:13;;;;;;;5.78;4.20;;;3.50;99.90;;;;;;5032050;28;20232;-45
2023/01/25 09:36:43;;;;;;;5.47;3.90;;;3.50;99.90;;;;;;5032300;28;20213;-44
2023/01/25 09:39:12;;;;;;;5.32;3.88;;;3.50;99.90;;;;;;5038147;28;20224;-47
2023/01/25 09:42:07;;;;;;;6.28;4.07;;;3.50;99.90;;;;;;5043345;28;20485;-46
2023/01/25 09:44:57;;;;;;;8.77;3.88;;;3.50;99.90;;;;;;5016598;28;20216;-47
2023/01/25 09:47:29;;;;;;;7.07;4.20;;;3.50;99.90;;;;;;5032462;28;20210;-47
2023/01/25 09:50:32;;;;;;;5.68;4.40;;;3.50;99.90;;;;;;5020116;28;20686;-47
2023/01/25 09:53:19;;;;;;;7.55;4.45;;;3.50;99.90;;;;;;4981936;28;20233;-46
2023/01/25 09:55:52;;;;;;;5.72;3.90;;;3.50;99.90;;;;;;5058399;28;20200;-46
2023/01/25 09:58:28;;;;;;;4.88;3.88;;;3.40;99.90;;;;;;5045529;28;20215;-47
2023/01/25 10:01:12;;;;;;;4.78;3.50;;;3.50;99.90;;;;;;5064273;28;20616;-46
2023/01/25 10:03:48;;;;;;;4.25;3.65;;;3.50;99.90;;;;;;5027879;28;20224;-46
2023/01/25 10:06:17;;;;;;;5.07;3.92;;;3.50;99.90;;;;;;5041566;28;20716;-46
2023/01/25 10:08:54;;;;;;;4.75;3.10;;;3.50;99.90;;;;;;5028228;28;20221;-45
2023/01/25 10:11:26;;;;;;;5.20;4.30;;;3.40;99.90;;;;;;5038362;28;20258;-46
2023/01/25 10:13:56;;;;;;;4.65;3.33;;;3.50;99.90;;;;;;5048944;28;20230;-48
2023/01/25 10:16:28;;;;;;;5.57;3.97;;;3.50;99.90;;;;;;5045426;28;21222;-46
2023/01/25 10:19:08;;;;;;;5.10;3.17;;;3.40;99.90;;;;;;5044628;28;20259;-46
2023/01/25 10:21:41;;;;;;;4.22;3.20;;;3.40;99.90;;;;;;5041014;28;20214;-46
2023/01/25 10:24:42;;;;;;;6.05;4.20;;;3.40;99.90;;;;;;5039176;28;20217;-46
2023/01/25 10:27:26;;;;;;;6.88;3.78;;;3.40;99.90;;;;;;5001808;28;20197;-46
2023/01/25 10:29:58;;;;;;;6.40;4.20;;;3.40;99.90;;;;;;5057909;28;20246;-45
2023/01/25 10:32:31;;;;;;;6.75;4.68;;;3.40;99.90;;;;;;5036260;28;20209;-46
2023/01/25 10:35:14;;;;;;;6.25;3.80;;;3.50;99.90;;;;;;5043241;28;20235;-46
2023/01/25 10:38:06;;;;;;;5.75;4.43;;;3.50;99.90;;;;;;5044338;28;20222;-45
2023/01/25 10:40:42;;;;;;;7.72;5.53;;;3.50;99.90;;;;;;5054932;28;20697;-46
2023/01/25 10:43:17;;;;;;;5.25;3.38;;;3.50;99.90;;;;;;5054571;28;20211;-45
2023/01/25 10:45:47;;;;;;;4.97;3.08;;;3.50;99.90;;;;;;5046915;28;20669;-46
2023/01/25 10:48:20;;;;;;;5.45;3.75;;;3.50;99.90;;;;;;5045300;28;20216;-46
2023/01/25 10:50:51;;;;;;;5.80;3.70;;;3.50;99.90;;;;;;5038846;28;20220;-46
2023/01/25 10:53:26;;;;;;;20.50;18.50;;;3.50;99.90;;;;;;5052174;28;20531;-46
2023/01/25 10:56:01;;;;;;;14.48;13.07;;;3.50;99.90;;;;;;5040426;28;20203;-50
2023/01/25 10:58:34;;;;;;;16.27;13.32;;;3.50;99.90;;;;;;5054090;28;20220;-46
2023/01/25 11:01:06;;;;;;;15.93;11.43;;;3.40;99.90;;;;;;5040065;28;20298;-47
2023/01/25 11:03:37;;;;;;;13.10;11.15;;;3.40;99.90;;;;;;5048196;28;20224;-48
2023/01/25 11:06:06;;;;;;;11.50;10.30;;;3.40;99.90;;;;;;5040841;28;20208;-47
2023/01/25 11:08:37;;;;;;;12.20;11.00;;;3.40;99.90;;;;;;5040574;28;20311;-46
2023/01/25 11:11:24;;;;;;;12.30;10.23;;;3.50;99.90;;;;;;5028419;28;20214;-47
2023/01/25 11:13:55;;;;;;;12.52;9.70;;;3.40;99.90;;;;;;5023945;28;20227;-47
2023/01/25 11:16:33;;;;;;;11.10;9.45;;;3.50;99.90;;;;;;5034021;28;20205;-49
2023/01/25 11:19:03;;;;;;;10.65;9.07;;;3.50;99.90;;;;;;5039995;28;20270;-46
2023/01/25 11:21:33;;;;;;;10.82;9.65;;;3.40;99.90;;;;;;5075010;28;20584;-46
2023/01/25 11:24:15;;;;;;;12.07;9.35;;;3.50;99.90;;;;;;5043362;28;20279;-45
2023/01/25 11:26:44;;;;;;;12.00;10.27;;;3.50;99.90;;;;;;5045829;28;20207;-46
2023/01/25 11:29:16;;;;;;;9.85;8.88;;;3.50;99.90;;;;;;5041088;28;20287;-47
2023/01/25 11:31:47;;;;;;;10.43;8.88;;;3.50;99.90;;;;;;5037830;28;20185;-48
2023/01/25 11:34:19;;;;;;;11.00;9.50;;;3.40;99.90;;;;;;5053176;28;20216;-45
2023/01/25 11:37:36;;;;;;;12.60;8.75;;;3.50;99.90;;;;;;5046564;28;20197;-48
2023/01/25 11:40:16;;;;;;;11.18;8.70;;;3.50;99.90;;;;;;5014852;28;20238;-46
2023/01/25 11:42:59;;;;;;;12.60;9.30;;;3.50;99.90;;;;;;5016279;28;20748;-46
2023/01/25 11:46:00;;;;;;;12.88;8.68;;;3.50;99.90;;;;;;5018870;28;20846;-45
2023/01/25 11:48:45;;;;;;;11.27;8.75;;;3.50;99.90;;;;;;5023620;28;20310;-46
2023/01/25 11:51:19;;;;;;;12.27;10.73;;;3.40;99.90;;;;;;5025451;28;20225;-47
2023/01/25 11:54:00;;;;;;;19.95;17.85;;;3.50;99.90;;;;;;5041580;28;20226;-45
2023/01/25 11:56:38;;;;;;;15.07;13.57;;;3.40;99.90;;;;;;5038466;28;20427;-46
2023/01/25 11:59:22;;;;;;;14.32;12.88;;;3.50;99.90;;;;;;5034423;28;20227;-47
2023/01/25 12:02:07;;;;;;;15.50;12.18;;;3.50;99.90;;;;;;5040501;28;20216;-49
2023/01/25 12:05:02;;;;;;;12.95;11.55;;;3.50;99.90;;;;;;5042114;28;20236;-47
2023/01/25 12:07:55;;;;;;;11.77;10.57;;;3.40;99.90;;;;;;5039822;28;20259;-46
2023/01/25 12:10:34;;;;;;;15.98;12.10;;;3.50;99.90;;;;;;5035189;28;20213;-46
2023/01/25 12:13:11;;;;;;;15.20;10.57;;;3.40;99.90;;;;;;5027525;28;20703;-47
2023/01/25 12:15:59;;;;;;;14.45;11.25;;;3.40;99.90;;;;;;5024059;28;20586;-48
2023/01/25 12:18:55;;;;;;;12.82;10.57;;;3.40;99.90;;;;;;5046160;28;20201;-46
2023/01/25 12:21:35;;;;;;;12.80;10.95;;;3.40;99.90;;;;;;5022921;28;20233;-47
2023/01/25 12:24:31;;;;;;;12.93;10.75;;;3.40;99.90;;;;;;5030148;28;20694;-46
2023/01/25 12:27:12;;;;;;;11.68;10.43;;;3.50;99.90;;;;;;5030657;28;20235;-47
2023/01/25 12:29:45;;;;;;;11.98;10.18;;;3.50;99.90;;;;;;5030543;28;20225;-46
2023/01/25 12:32:20;;;;;;;12.02;9.80;;;3.40;99.90;;;;;;5063168;28;20265;-45
2023/01/25 12:34:58;;;;;;;12.52;10.10;;;3.50;99.90;;;;;;5053526;28;20217;-47
2023/01/25 12:37:34;;;;;;;11.32;9.38;;;3.50;99.90;;;;;;5058795;28;20251;-46
2023/01/25 12:40:06;;;;;;;11.00;9.90;;;3.40;99.90;;;;;;5062030;28;20221;-46
2023/01/25 12:42:41;;;;;;;14.07;11.27;;;3.40;99.90;;;;;;5049354;28;20217;-48
2023/01/25 12:45:14;;;;;;;12.20;9.45;;;3.40;99.90;;;;;;5047466;28;20204;-47
2023/01/25 12:47:49;;;;;;;12.32;9.45;;;3.40;99.90;;;;;;5054711;28;20200;-46
2023/01/25 12:50:22;;;;;;;11.65;10.45;;;3.40;99.90;;;;;;5029514;28;20216;-50
2023/01/25 12:52:54;;;;;;;10.88;9.13;;;3.40;99.90;;;;;;5051407;28;20228;-55
2023/01/25 12:55:22;;;;;;;11.73;9.73;;;3.40;99.90;;;;;;5049048;28;20197;-46
2023/01/25 12:57:58;;;;;;;10.13;9.13;;;3.50;99.90;;;;;;5042476;28;20688;-45
2023/01/25 13:00:33;;;;;;;10.85;9.07;;;3.40;99.90;;;;;;5030823;28;20228;-48
2023/01/25 13:03:16;;;;;;;13.02;10.52;;;3.40;99.90;;;;;;5026103;28;20290;-46
2023/01/25 13:05:51;;;;;;;11.65;9.85;;;3.40;99.90;;;;;;5022726;28;20202;-47
2023/01/25 13:08:32;;;;;;;12.13;9.30;;;3.50;99.90;;;;;;5028652;28;20561;-46
2023/01/25 13:11:12;;;;;;;10.75;9.65;;;3.40;99.90;;;;;;5016218;28;20212;-46
2023/01/25 13:13:41;;;;;;;14.00;10.18;;;3.40;99.90;;;;;;5027541;28;20792;-48
2023/01/25 13:16:34;;;;;;;11.38;9.20;;;3.40;99.90;;;;;;5023887;28;20449;-46
2023/01/25 13:19:03;;;;;;;16.45;10.60;;;3.40;99.90;;;;;;5053760;28;20693;-46
2023/01/25 13:21:43;;;;;;;15.20;10.18;;;3.40;99.90;;;;;;5048649;28;20212;-45
2023/01/25 13:24:15;;;;;;;15.82;9.13;;;3.40;99.90;;;;;;5029168;28;20232;-47
2023/01/25 13:26:57;;;;;;;14.80;9.55;;;3.50;99.90;;;;;;5028226;28;20569;-46